sensor_id;sensor_type;location;lat;lon;timestamp;temperature;humidity
1958;DHT22;979;51.076;13.748;2022-11-20T00:02:25;-2.70;57.20
1958;DHT22;979;51.076;13.748;2022-11-20T00:05:03;-2.60;57.30
1958;DHT22;979;51.076;13.748;2022-11-20T00:07:37;-2.60;57.40
1958;DHT22;979;51.076;13.748;2022-11-20T00:10:06;-2.60;57.40
1958;DHT22;979;51.076;13.748;2022-11-20T00:12:34;-2.60;57.50
1958;DHT22;979;51.076;13.748;2022-11-20T00:15:03;-2.60;57.40
1958;DHT22;979;51.076;13.748;2022-11-20T00:17:36;-2.50;57.40
1958;DHT22;979;51.076;13.748;2022-11-20T00:20:14;-2.50;57.60
1958;DHT22;979;51.076;13.748;2022-11-20T00:22:44;-2.50;57.50
1958;DHT22;979;51.076;13.748;2022-11-20T00:25:19;-2.50;57.60
1958;DHT22;979;51.076;13.748;2022-11-20T00:28:01;-2.50;57.70
1958;DHT22;979;51.076;13.748;2022-11-20T00:30:45;-2.30;57.90
1958;DHT22;979;51.076;13.748;2022-11-20T00:33:30;-2.50;57.90
1958;DHT22;979;51.076;13.748;2022-11-20T00:36:05;-2.30;57.90
1958;DHT22;979;51.076;13.748;2022-11-20T00:39:02;-2.50;57.70
1958;DHT22;979;51.076;13.748;2022-11-20T00:42:04;-2.50;57.80
1958;DHT22;979;51.076;13.748;2022-11-20T00:45:01;-2.30;58.10
1958;DHT22;979;51.076;13.748;2022-11-20T01:19:22;-2.40;58.20
1958;DHT22;979;51.076;13.748;2022-11-20T01:22:02;-2.40;58.20
1958;DHT22;979;51.076;13.748;2022-11-20T01:24:30;-2.40;58.20
1958;DHT22;979;51.076;13.748;2022-11-20T01:26:59;-2.40;58.20
1958;DHT22;979;51.076;13.748;2022-11-20T01:29:28;-2.20;58.40
1958;DHT22;979;51.076;13.748;2022-11-20T01:31:56;-2.30;58.30
1958;DHT22;979;51.076;13.748;2022-11-20T01:34:27;-2.40;58.30
1958;DHT22;979;51.076;13.748;2022-11-20T01:36:55;-2.20;58.30
1958;DHT22;979;51.076;13.748;2022-11-20T01:39:25;-2.40;58.20
1958;DHT22;979;51.076;13.748;2022-11-20T01:42:03;-2.40;58.10
1958;DHT22;979;51.076;13.748;2022-11-20T01:45:42;-2.20;58.20
1958;DHT22;979;51.076;13.748;2022-11-20T01:48:06;-2.40;58.20
1958;DHT22;979;51.076;13.748;2022-11-20T01:50:59;-2.30;58.30
1958;DHT22;979;51.076;13.748;2022-11-20T01:53:47;-2.40;58.70
1958;DHT22;979;51.076;13.748;2022-11-20T01:56:35;-2.40;58.10
1958;DHT22;979;51.076;13.748;2022-11-20T01:59:19;-2.30;58.30
1958;DHT22;979;51.076;13.748;2022-11-20T02:02:02;-2.60;57.80
1958;DHT22;979;51.076;13.748;2022-11-20T02:04:49;-2.50;58.00
1958;DHT22;979;51.076;13.748;2022-11-20T02:07:37;-2.50;58.20
1958;DHT22;979;51.076;13.748;2022-11-20T02:10:35;-2.80;58.00
1958;DHT22;979;51.076;13.748;2022-11-20T02:13:24;-2.80;58.10
1958;DHT22;979;51.076;13.748;2022-11-20T02:16:25;-2.90;58.00
1958;DHT22;979;51.076;13.748;2022-11-20T02:19:12;-2.90;58.10
1958;DHT22;979;51.076;13.748;2022-11-20T02:22:08;-2.90;58.20
1958;DHT22;979;51.076;13.748;2022-11-20T02:24:57;-2.90;58.30
1958;DHT22;979;51.076;13.748;2022-11-20T02:27:37;-2.80;58.40
1958;DHT22;979;51.076;13.748;2022-11-20T02:33:25;-2.90;58.20
1958;DHT22;979;51.076;13.748;2022-11-20T02:36:08;-2.70;58.30
1958;DHT22;979;51.076;13.748;2022-11-20T02:38:52;-2.90;58.20
1958;DHT22;979;51.076;13.748;2022-11-20T02:41:35;-2.80;58.30
1958;DHT22;979;51.076;13.748;2022-11-20T02:44:12;-2.90;58.40
1958;DHT22;979;51.076;13.748;2022-11-20T02:46:57;-3.00;58.20
1958;DHT22;979;51.076;13.748;2022-11-20T02:49:55;-3.00;58.10
1958;DHT22;979;51.076;13.748;2022-11-20T02:52:31;-3.00;58.20
1958;DHT22;979;51.076;13.748;2022-11-20T02:55:00;-2.80;58.40
1958;DHT22;979;51.076;13.748;2022-11-20T02:57:30;-3.00;58.10
1958;DHT22;979;51.076;13.748;2022-11-20T03:00:00;-2.90;58.30
1958;DHT22;979;51.076;13.748;2022-11-20T03:02:29;-3.00;58.20
1958;DHT22;979;51.076;13.748;2022-11-20T03:04:58;-3.00;58.30
1958;DHT22;979;51.076;13.748;2022-11-20T03:07:27;-3.00;58.20
1958;DHT22;979;51.076;13.748;2022-11-20T03:09:56;-3.00;58.20
1958;DHT22;979;51.076;13.748;2022-11-20T03:12:24;-3.10;58.20
1958;DHT22;979;51.076;13.748;2022-11-20T03:15:09;-3.20;58.10
1958;DHT22;979;51.076;13.748;2022-11-20T03:18:04;-3.10;58.10
1958;DHT22;979;51.076;13.748;2022-11-20T03:20:44;-3.10;58.10
1958;DHT22;979;51.076;13.748;2022-11-20T03:23:19;-3.10;58.10
1958;DHT22;979;51.076;13.748;2022-11-20T03:25:53;-3.20;58.20
1958;DHT22;979;51.076;13.748;2022-11-20T03:28:38;-3.10;58.10
1958;DHT22;979;51.076;13.748;2022-11-20T03:31:21;-3.10;58.10
1958;DHT22;979;51.076;13.748;2022-11-20T03:33:54;-3.20;58.30
1958;DHT22;979;51.076;13.748;2022-11-20T03:36:37;-3.20;58.30
1958;DHT22;979;51.076;13.748;2022-11-20T03:39:15;-3.20;58.20
1958;DHT22;979;51.076;13.748;2022-11-20T03:41:58;-3.30;58.30
1958;DHT22;979;51.076;13.748;2022-11-20T03:44:39;-3.10;58.50
1958;DHT22;979;51.076;13.748;2022-11-20T03:47:41;-3.30;58.30
1958;DHT22;979;51.076;13.748;2022-11-20T03:50:16;-3.20;58.50
1958;DHT22;979;51.076;13.748;2022-11-20T03:53:04;-3.00;58.70
1958;DHT22;979;51.076;13.748;2022-11-20T03:55:46;-3.20;58.50
1958;DHT22;979;51.076;13.748;2022-11-20T03:58:40;-3.20;58.50
1958;DHT22;979;51.076;13.748;2022-11-20T04:01:22;-3.20;58.40
1958;DHT22;979;51.076;13.748;2022-11-20T04:04:09;-3.10;58.60
1958;DHT22;979;51.076;13.748;2022-11-20T04:06:52;-3.20;58.50
1958;DHT22;979;51.076;13.748;2022-11-20T04:09:42;-3.20;58.50
1958;DHT22;979;51.076;13.748;2022-11-20T04:12:24;-3.30;58.40
1958;DHT22;979;51.076;13.748;2022-11-20T04:15:20;-3.00;58.70
1958;DHT22;979;51.076;13.748;2022-11-20T04:18:05;-3.10;58.50
1958;DHT22;979;51.076;13.748;2022-11-20T04:20:51;-3.30;58.50
1958;DHT22;979;51.076;13.748;2022-11-20T04:23:33;-3.20;58.60
1958;DHT22;979;51.076;13.748;2022-11-20T04:26:25;-3.20;58.60
1958;DHT22;979;51.076;13.748;2022-11-20T04:29:19;-3.20;58.60
1958;DHT22;979;51.076;13.748;2022-11-20T04:31:54;-3.30;58.50
1958;DHT22;979;51.076;13.748;2022-11-20T04:34:28;-3.30;58.50
1958;DHT22;979;51.076;13.748;2022-11-20T04:37:03;-3.30;58.60
1958;DHT22;979;51.076;13.748;2022-11-20T04:39:41;-3.30;58.60
1958;DHT22;979;51.076;13.748;2022-11-20T04:42:18;-3.10;58.60
1958;DHT22;979;51.076;13.748;2022-11-20T04:45:08;-3.30;58.50
1958;DHT22;979;51.076;13.748;2022-11-20T04:47:47;-3.30;58.50
1958;DHT22;979;51.076;13.748;2022-11-20T04:50:20;-3.30;59.10
1958;DHT22;979;51.076;13.748;2022-11-20T04:52:56;-3.20;58.70
1958;DHT22;979;51.076;13.748;2022-11-20T04:55:25;-3.30;58.70
1958;DHT22;979;51.076;13.748;2022-11-20T04:57:54;-3.40;58.60
1958;DHT22;979;51.076;13.748;2022-11-20T05:00:37;-3.20;58.90
1958;DHT22;979;51.076;13.748;2022-11-20T05:03:13;-3.20;58.90
1958;DHT22;979;51.076;13.748;2022-11-20T05:06:14;-3.30;58.60
1958;DHT22;979;51.076;13.748;2022-11-20T05:08:54;-3.30;58.60
1958;DHT22;979;51.076;13.748;2022-11-20T05:11:32;-3.30;58.90
1958;DHT22;979;51.076;13.748;2022-11-20T05:14:14;-3.30;58.90
1958;DHT22;979;51.076;13.748;2022-11-20T05:17:11;-3.30;58.90
1958;DHT22;979;51.076;13.748;2022-11-20T05:20:09;-3.30;58.80
1958;DHT22;979;51.076;13.748;2022-11-20T05:22:48;-3.30;58.60
1958;DHT22;979;51.076;13.748;2022-11-20T05:25:27;-3.20;58.90
1958;DHT22;979;51.076;13.748;2022-11-20T05:31:07;-3.40;58.60
1958;DHT22;979;51.076;13.748;2022-11-20T05:33:45;-3.20;58.70
1958;DHT22;979;51.076;13.748;2022-11-20T05:36:38;-3.40;58.50
1958;DHT22;979;51.076;13.748;2022-11-20T05:39:21;-3.40;58.40
1958;DHT22;979;51.076;13.748;2022-11-20T05:42:48;-3.50;58.60
1958;DHT22;979;51.076;13.748;2022-11-20T05:45:31;-3.60;58.40
1958;DHT22;979;51.076;13.748;2022-11-20T05:48:52;-3.60;59.20
1958;DHT22;979;51.076;13.748;2022-11-20T05:51:57;-3.60;58.40
1958;DHT22;979;51.076;13.748;2022-11-20T05:54:41;-3.50;58.70
1958;DHT22;979;51.076;13.748;2022-11-20T05:57:10;-3.60;58.60
1958;DHT22;979;51.076;13.748;2022-11-20T05:59:57;-3.60;58.50
1958;DHT22;979;51.076;13.748;2022-11-20T06:02:58;-3.70;58.50
1958;DHT22;979;51.076;13.748;2022-11-20T06:06:11;-3.60;58.50
1958;DHT22;979;51.076;13.748;2022-11-20T06:08:55;-3.70;58.40
1958;DHT22;979;51.076;13.748;2022-11-20T06:11:39;-3.70;58.50
1958;DHT22;979;51.076;13.748;2022-11-20T06:14:21;-3.60;58.60
1958;DHT22;979;51.076;13.748;2022-11-20T06:17:10;-3.70;58.50
1958;DHT22;979;51.076;13.748;2022-11-20T06:19:49;-3.80;58.50
1958;DHT22;979;51.076;13.748;2022-11-20T06:22:39;-3.70;58.80
1958;DHT22;979;51.076;13.748;2022-11-20T06:25:19;-3.80;58.70
1958;DHT22;979;51.076;13.748;2022-11-20T06:27:59;-3.70;58.70
1958;DHT22;979;51.076;13.748;2022-11-20T06:30:48;-3.70;58.60
1958;DHT22;979;51.076;13.748;2022-11-20T06:33:36;-3.90;58.40
1958;DHT22;979;51.076;13.748;2022-11-20T06:36:22;-3.80;58.60
1958;DHT22;979;51.076;13.748;2022-11-20T06:42:29;-4.00;58.30
1958;DHT22;979;51.076;13.748;2022-11-20T06:45:15;-3.90;58.50
1958;DHT22;979;51.076;13.748;2022-11-20T06:47:49;-3.90;58.50
1958;DHT22;979;51.076;13.748;2022-11-20T06:50:22;-3.80;58.70
1958;DHT22;979;51.076;13.748;2022-11-20T06:53:05;-3.90;58.40
1958;DHT22;979;51.076;13.748;2022-11-20T06:55:55;-3.90;58.50
1958;DHT22;979;51.076;13.748;2022-11-20T06:58:39;-3.90;58.50
1958;DHT22;979;51.076;13.748;2022-11-20T07:01:23;-3.80;58.70
1958;DHT22;979;51.076;13.748;2022-11-20T07:04:14;-3.80;58.60
1958;DHT22;979;51.076;13.748;2022-11-20T07:06:56;-3.70;58.80
1958;DHT22;979;51.076;13.748;2022-11-20T07:09:59;-3.50;59.00
1958;DHT22;979;51.076;13.748;2022-11-20T07:12:57;-3.60;58.80
1958;DHT22;979;51.076;13.748;2022-11-20T07:15:32;-3.60;59.00
1958;DHT22;979;51.076;13.748;2022-11-20T07:18:19;-3.50;59.00
1958;DHT22;979;51.076;13.748;2022-11-20T07:21:04;-3.50;59.00
1958;DHT22;979;51.076;13.748;2022-11-20T07:23:34;-3.40;58.90
1958;DHT22;979;51.076;13.748;2022-11-20T07:26:22;-3.40;59.00
1958;DHT22;979;51.076;13.748;2022-11-20T07:33:00;-3.20;59.10
1958;DHT22;979;51.076;13.748;2022-11-20T07:36:27;-3.10;59.30
1958;DHT22;979;51.076;13.748;2022-11-20T07:39:35;-3.10;59.30
1958;DHT22;979;51.076;13.748;2022-11-20T07:42:36;-2.80;59.40
1958;DHT22;979;51.076;13.748;2022-11-20T07:45:26;-3.00;59.30
1958;DHT22;979;51.076;13.748;2022-11-20T07:48:39;-2.90;59.50
1958;DHT22;979;51.076;13.748;2022-11-20T07:51:28;-2.90;59.50
1958;DHT22;979;51.076;13.748;2022-11-20T07:54:47;-2.50;59.70
1958;DHT22;979;51.076;13.748;2022-11-20T07:57:36;-2.50;59.60
1958;DHT22;979;51.076;13.748;2022-11-20T08:00:22;-2.40;60.20
1958;DHT22;979;51.076;13.748;2022-11-20T08:03:17;-2.40;59.60
1958;DHT22;979;51.076;13.748;2022-11-20T08:06:05;-2.20;59.80
1958;DHT22;979;51.076;13.748;2022-11-20T08:08:58;-2.10;59.80
1958;DHT22;979;51.076;13.748;2022-11-20T08:11:42;-2.00;59.90
1958;DHT22;979;51.076;13.748;2022-11-20T08:14:28;-1.90;60.00
1958;DHT22;979;51.076;13.748;2022-11-20T08:16:57;-1.80;60.00
1958;DHT22;979;51.076;13.748;2022-11-20T08:19:32;-1.80;60.00
1958;DHT22;979;51.076;13.748;2022-11-20T08:22:13;-1.60;60.10
1958;DHT22;979;51.076;13.748;2022-11-20T08:25:11;-1.40;60.40
1958;DHT22;979;51.076;13.748;2022-11-20T08:31:34;-1.30;60.10
1958;DHT22;979;51.076;13.748;2022-11-20T08:34:40;-1.20;60.40
1958;DHT22;979;51.076;13.748;2022-11-20T08:40:34;-1.00;60.50
1958;DHT22;979;51.076;13.748;2022-11-20T08:43:16;-0.90;60.60
1958;DHT22;979;51.076;13.748;2022-11-20T08:46:14;-0.70;61.10
1958;DHT22;979;51.076;13.748;2022-11-20T08:48:51;-0.80;60.70
1958;DHT22;979;51.076;13.748;2022-11-20T08:51:29;-0.50;61.20
1958;DHT22;979;51.076;13.748;2022-11-20T08:54:53;-0.50;60.90
1958;DHT22;979;51.076;13.748;2022-11-20T08:58:10;-0.50;61.00
1958;DHT22;979;51.076;13.748;2022-11-20T09:05:20;-0.10;62.00
1958;DHT22;979;51.076;13.748;2022-11-20T09:08:32;-0.20;60.90
1958;DHT22;979;51.076;13.748;2022-11-20T09:11:26;0.00;61.40
1958;DHT22;979;51.076;13.748;2022-11-20T09:14:55;0.10;61.40
1958;DHT22;979;51.076;13.748;2022-11-20T09:17:44;-0.10;61.20
1958;DHT22;979;51.076;13.748;2022-11-20T09:21:14;0.30;61.70
1958;DHT22;979;51.076;13.748;2022-11-20T09:24:15;0.20;61.40
1958;DHT22;979;51.076;13.748;2022-11-20T09:27:05;0.20;61.40
1958;DHT22;979;51.076;13.748;2022-11-20T09:30:15;0.30;61.50
1958;DHT22;979;51.076;13.748;2022-11-20T09:33:51;0.40;61.70
1958;DHT22;979;51.076;13.748;2022-11-20T09:37:16;0.50;61.50
1958;DHT22;979;51.076;13.748;2022-11-20T09:40:28;0.60;61.70
1958;DHT22;979;51.076;13.748;2022-11-20T09:47:13;0.80;61.70
1958;DHT22;979;51.076;13.748;2022-11-20T09:50:32;1.00;62.00
1958;DHT22;979;51.076;13.748;2022-11-20T09:53:37;0.90;61.50
1958;DHT22;979;51.076;13.748;2022-11-20T10:00:50;1.30;61.80
1958;DHT22;979;51.076;13.748;2022-11-20T10:04:58;1.30;61.70
1958;DHT22;979;51.076;13.748;2022-11-20T10:07:44;1.60;62.00
1958;DHT22;979;51.076;13.748;2022-11-20T10:11:11;1.80;61.70
1958;DHT22;979;51.076;13.748;2022-11-20T10:13:59;1.70;61.50
1958;DHT22;979;51.076;13.748;2022-11-20T10:20:20;1.80;61.20
1958;DHT22;979;51.076;13.748;2022-11-20T10:31:07;2.00;61.20
1958;DHT22;979;51.076;13.748;2022-11-20T10:34:00;2.10;61.20
1958;DHT22;979;51.076;13.748;2022-11-20T10:52:38;3.10;61.60
1958;DHT22;979;51.076;13.748;2022-11-20T10:56:33;3.30;61.50
1958;DHT22;979;51.076;13.748;2022-11-20T11:00:04;3.60;61.10
1958;DHT22;979;51.076;13.748;2022-11-20T11:03:02;3.80;60.30
1958;DHT22;979;51.076;13.748;2022-11-20T11:05:54;3.90;60.30
1958;DHT22;979;51.076;13.748;2022-11-20T11:08:50;3.90;60.00
1958;DHT22;979;51.076;13.748;2022-11-20T11:11:41;3.90;60.40
1958;DHT22;979;51.076;13.748;2022-11-20T11:15:03;4.00;60.50
1958;DHT22;979;51.076;13.748;2022-11-20T11:18:05;4.10;60.40
1958;DHT22;979;51.076;13.748;2022-11-20T11:20:40;4.30;60.60
1958;DHT22;979;51.076;13.748;2022-11-20T11:24:14;4.50;60.70
1958;DHT22;979;51.076;13.748;2022-11-20T11:27:26;4.80;61.40
1958;DHT22;979;51.076;13.748;2022-11-20T11:30:17;4.90;60.40
1958;DHT22;979;51.076;13.748;2022-11-20T11:33:24;5.00;60.20
1958;DHT22;979;51.076;13.748;2022-11-20T11:36:19;5.40;60.30
1958;DHT22;979;51.076;13.748;2022-11-20T11:39:13;5.40;60.70
1958;DHT22;979;51.076;13.748;2022-11-20T11:41:47;6.10;62.90
1958;DHT22;979;51.076;13.748;2022-11-20T11:44:53;7.20;62.90
1958;DHT22;979;51.076;13.748;2022-11-20T11:47:58;8.40;61.40
1958;DHT22;979;51.076;13.748;2022-11-20T11:50:54;9.20;60.00
1958;DHT22;979;51.076;13.748;2022-11-20T11:53:27;9.90;60.10
1958;DHT22;979;51.076;13.748;2022-11-20T11:56:08;10.70;58.80
1958;DHT22;979;51.076;13.748;2022-11-20T11:58:57;11.50;57.60
1958;DHT22;979;51.076;13.748;2022-11-20T12:02:15;12.30;57.40
1958;DHT22;979;51.076;13.748;2022-11-20T12:05:34;13.10;56.30
1958;DHT22;979;51.076;13.748;2022-11-20T12:12:27;14.70;54.80
1958;DHT22;979;51.076;13.748;2022-11-20T12:15:45;15.50;53.40
1958;DHT22;979;51.076;13.748;2022-11-20T12:18:57;16.40;53.20
1958;DHT22;979;51.076;13.748;2022-11-20T12:24:57;16.90;50.40
1958;DHT22;979;51.076;13.748;2022-11-20T12:36:19;17.10;48.70
1958;DHT22;979;51.076;13.748;2022-11-20T12:40:11;16.70;47.00
1958;DHT22;979;51.076;13.748;2022-11-20T12:43:11;14.10;46.20
1958;DHT22;979;51.076;13.748;2022-11-20T12:46:30;12.30;46.90
1958;DHT22;979;51.076;13.748;2022-11-20T12:49:31;10.70;47.50
1958;DHT22;979;51.076;13.748;2022-11-20T12:52:37;9.80;49.90
1958;DHT22;979;51.076;13.748;2022-11-20T12:55:31;8.40;49.50
1958;DHT22;979;51.076;13.748;2022-11-20T12:58:11;7.50;50.30
1958;DHT22;979;51.076;13.748;2022-11-20T13:00:53;7.00;51.10
1958;DHT22;979;51.076;13.748;2022-11-20T13:03:42;6.60;51.60
1958;DHT22;979;51.076;13.748;2022-11-20T13:06:16;6.30;51.90
1958;DHT22;979;51.076;13.748;2022-11-20T13:12:33;5.90;52.90
1958;DHT22;979;51.076;13.748;2022-11-20T13:16:31;5.50;53.10
1958;DHT22;979;51.076;13.748;2022-11-20T13:19:35;5.30;53.50
1958;DHT22;979;51.076;13.748;2022-11-20T13:22:58;5.20;53.90
1958;DHT22;979;51.076;13.748;2022-11-20T13:26:58;4.90;54.40
1958;DHT22;979;51.076;13.748;2022-11-20T13:33:21;4.70;54.80
1958;DHT22;979;51.076;13.748;2022-11-20T13:36:59;4.70;55.20
1958;DHT22;979;51.076;13.748;2022-11-20T13:40:10;4.70;55.20
1958;DHT22;979;51.076;13.748;2022-11-20T13:43:35;4.70;55.30
1958;DHT22;979;51.076;13.748;2022-11-20T13:50:13;4.70;55.70
1958;DHT22;979;51.076;13.748;2022-11-20T13:53:22;4.80;55.60
1958;DHT22;979;51.076;13.748;2022-11-20T13:56:17;4.80;55.60
1958;DHT22;979;51.076;13.748;2022-11-20T14:02:59;4.70;55.90
1958;DHT22;979;51.076;13.748;2022-11-20T14:06:38;4.60;55.90
1958;DHT22;979;51.076;13.748;2022-11-20T14:09:31;4.60;56.00
1958;DHT22;979;51.076;13.748;2022-11-20T14:12:21;4.40;56.20
1958;DHT22;979;51.076;13.748;2022-11-20T14:15:34;4.30;56.40
1958;DHT22;979;51.076;13.748;2022-11-20T14:18:31;4.20;56.60
1958;DHT22;979;51.076;13.748;2022-11-20T14:21:20;4.10;56.80
1958;DHT22;979;51.076;13.748;2022-11-20T14:24:10;4.00;56.60
1958;DHT22;979;51.076;13.748;2022-11-20T14:26:50;4.00;56.70
1958;DHT22;979;51.076;13.748;2022-11-20T14:33:28;3.90;56.80
1958;DHT22;979;51.076;13.748;2022-11-20T14:39:59;3.50;56.80
1958;DHT22;979;51.076;13.748;2022-11-20T14:50:29;3.30;57.10
1958;DHT22;979;51.076;13.748;2022-11-20T14:53:29;3.00;57.00
1958;DHT22;979;51.076;13.748;2022-11-20T14:56:30;3.00;57.30
1958;DHT22;979;51.076;13.748;2022-11-20T14:59:23;2.90;57.10
1958;DHT22;979;51.076;13.748;2022-11-20T15:02:00;2.80;57.40
1958;DHT22;979;51.076;13.748;2022-11-20T15:04:31;2.90;57.40
1958;DHT22;979;51.076;13.748;2022-11-20T15:07:05;2.70;57.60
1958;DHT22;979;51.076;13.748;2022-11-20T15:09:34;2.60;57.60
1958;DHT22;979;51.076;13.748;2022-11-20T15:12:04;2.60;57.60
1958;DHT22;979;51.076;13.748;2022-11-20T15:14:33;2.50;57.50
1958;DHT22;979;51.076;13.748;2022-11-20T15:17:08;2.60;57.70
1958;DHT22;979;51.076;13.748;2022-11-20T15:19:39;2.40;57.60
1958;DHT22;979;51.076;13.748;2022-11-20T15:22:12;2.50;57.90
1958;DHT22;979;51.076;13.748;2022-11-20T15:24:49;2.50;57.80
1958;DHT22;979;51.076;13.748;2022-11-20T15:28:01;2.30;57.90
1958;DHT22;979;51.076;13.748;2022-11-20T15:49:36;1.90;57.90
1958;DHT22;979;51.076;13.748;2022-11-20T15:52:11;2.10;58.10
1958;DHT22;979;51.076;13.748;2022-11-20T15:55:10;2.00;58.20
1958;DHT22;979;51.076;13.748;2022-11-20T15:57:57;1.90;58.30
1958;DHT22;979;51.076;13.748;2022-11-20T16:00:40;1.90;58.20
1958;DHT22;979;51.076;13.748;2022-11-20T16:03:30;1.80;58.10
1958;DHT22;979;51.076;13.748;2022-11-20T16:06:17;1.80;58.10
1958;DHT22;979;51.076;13.748;2022-11-20T16:09:06;1.80;58.10
1958;DHT22;979;51.076;13.748;2022-11-20T16:11:35;1.70;58.20
1958;DHT22;979;51.076;13.748;2022-11-20T16:14:09;1.70;58.20
1958;DHT22;979;51.076;13.748;2022-11-20T16:16:55;1.70;58.10
1958;DHT22;979;51.076;13.748;2022-11-20T16:19:32;1.80;58.50
1958;DHT22;979;51.076;13.748;2022-11-20T16:22:10;1.60;58.50
1958;DHT22;979;51.076;13.748;2022-11-20T16:24:43;1.50;58.50
1958;DHT22;979;51.076;13.748;2022-11-20T16:27:38;1.50;58.60
1958;DHT22;979;51.076;13.748;2022-11-20T16:30:40;1.50;58.50
1958;DHT22;979;51.076;13.748;2022-11-20T16:33:48;1.50;59.00
1958;DHT22;979;51.076;13.748;2022-11-20T16:40:57;1.50;58.80
1958;DHT22;979;51.076;13.748;2022-11-20T16:44:05;1.30;58.60
1958;DHT22;979;51.076;13.748;2022-11-20T16:47:23;1.40;58.80
1958;DHT22;979;51.076;13.748;2022-11-20T16:50:11;1.40;58.80
1958;DHT22;979;51.076;13.748;2022-11-20T16:53:18;1.30;58.80
1958;DHT22;979;51.076;13.748;2022-11-20T16:56:29;1.50;59.20
1958;DHT22;979;51.076;13.748;2022-11-20T16:59:30;1.20;58.90
1958;DHT22;979;51.076;13.748;2022-11-20T17:02:04;1.30;59.20
1958;DHT22;979;51.076;13.748;2022-11-20T17:08:47;1.20;58.90
1958;DHT22;979;51.076;13.748;2022-11-20T17:11:28;1.10;59.10
1958;DHT22;979;51.076;13.748;2022-11-20T17:20:30;1.20;58.90
1958;DHT22;979;51.076;13.748;2022-11-20T18:02:10;1.10;59.40
1958;DHT22;979;51.076;13.748;2022-11-20T18:04:46;1.00;59.50
1958;DHT22;979;51.076;13.748;2022-11-20T18:07:18;1.00;59.60
1958;DHT22;979;51.076;13.748;2022-11-20T18:10:38;1.20;59.90
1958;DHT22;979;51.076;13.748;2022-11-20T18:13:14;1.00;59.40
1958;DHT22;979;51.076;13.748;2022-11-20T18:15:48;1.10;59.70
1958;DHT22;979;51.076;13.748;2022-11-20T18:18:18;0.90;59.50
1958;DHT22;979;51.076;13.748;2022-11-20T18:21:00;0.80;59.60
1958;DHT22;979;51.076;13.748;2022-11-20T18:23:34;0.80;59.50
1958;DHT22;979;51.076;13.748;2022-11-20T18:26:12;0.80;60.40
1958;DHT22;979;51.076;13.748;2022-11-20T18:28:50;0.90;59.80
1958;DHT22;979;51.076;13.748;2022-11-20T18:32:03;0.70;59.50
1958;DHT22;979;51.076;13.748;2022-11-20T18:34:42;0.50;59.40
1958;DHT22;979;51.076;13.748;2022-11-20T18:37:12;0.40;59.60
1958;DHT22;979;51.076;13.748;2022-11-20T18:39:51;0.40;60.30
1958;DHT22;979;51.076;13.748;2022-11-20T18:42:21;0.20;59.70
1958;DHT22;979;51.076;13.748;2022-11-20T18:45:08;0.20;59.70
1958;DHT22;979;51.076;13.748;2022-11-20T18:47:43;0.20;59.80
1958;DHT22;979;51.076;13.748;2022-11-20T18:50:25;0.10;59.80
1958;DHT22;979;51.076;13.748;2022-11-20T18:52:56;0.20;59.90
1958;DHT22;979;51.076;13.748;2022-11-20T18:55:36;0.00;60.00
1958;DHT22;979;51.076;13.748;2022-11-20T18:58:05;0.00;60.30
1958;DHT22;979;51.076;13.748;2022-11-20T19:00:35;0.00;60.30
1958;DHT22;979;51.076;13.748;2022-11-20T19:03:06;-0.10;60.30
1958;DHT22;979;51.076;13.748;2022-11-20T19:05:40;0.00;60.50
1958;DHT22;979;51.076;13.748;2022-11-20T19:08:15;0.00;60.70
1958;DHT22;979;51.076;13.748;2022-11-20T19:10:45;0.00;60.80
1958;DHT22;979;51.076;13.748;2022-11-20T19:13:31;0.10;60.80
1958;DHT22;979;51.076;13.748;2022-11-20T19:16:13;-0.10;60.50
1958;DHT22;979;51.076;13.748;2022-11-20T19:18:43;0.00;60.40
1958;DHT22;979;51.076;13.748;2022-11-20T19:21:15;-0.10;60.30
1958;DHT22;979;51.076;13.748;2022-11-20T19:23:46;-0.10;60.40
1958;DHT22;979;51.076;13.748;2022-11-20T19:26:19;-0.20;60.40
1958;DHT22;979;51.076;13.748;2022-11-20T19:28:48;-0.40;60.20
1958;DHT22;979;51.076;13.748;2022-11-20T19:31:20;-0.30;60.60
1958;DHT22;979;51.076;13.748;2022-11-20T19:33:52;-0.20;60.70
1958;DHT22;979;51.076;13.748;2022-11-20T19:36:25;-0.40;60.50
1958;DHT22;979;51.076;13.748;2022-11-20T19:38:57;-0.30;60.70
1958;DHT22;979;51.076;13.748;2022-11-20T19:41:27;-0.50;60.60
1958;DHT22;979;51.076;13.748;2022-11-20T19:47:48;-0.40;60.60
1958;DHT22;979;51.076;13.748;2022-11-20T19:50:45;-0.40;60.80
1958;DHT22;979;51.076;13.748;2022-11-20T19:53:40;-0.40;60.70
1958;DHT22;979;51.076;13.748;2022-11-20T19:56:10;-0.50;60.70
1958;DHT22;979;51.076;13.748;2022-11-20T19:59:20;-0.40;61.00
1958;DHT22;979;51.076;13.748;2022-11-20T20:02:25;-0.40;61.00
1958;DHT22;979;51.076;13.748;2022-11-20T20:05:11;-0.40;61.90
1958;DHT22;979;51.076;13.748;2022-11-20T20:15:15;-0.40;60.90
1958;DHT22;979;51.076;13.748;2022-11-20T20:18:29;-0.40;60.90
1958;DHT22;979;51.076;13.748;2022-11-20T20:25:32;-0.30;61.30
1958;DHT22;979;51.076;13.748;2022-11-20T20:28:44;-0.20;61.50
1958;DHT22;979;51.076;13.748;2022-11-20T20:31:44;-0.10;61.80
1958;DHT22;979;51.076;13.748;2022-11-20T20:35:17;0.00;61.90
1958;DHT22;979;51.076;13.748;2022-11-20T20:38:10;0.10;61.70
1958;DHT22;979;51.076;13.748;2022-11-20T20:41:29;0.20;62.00
1958;DHT22;979;51.076;13.748;2022-11-20T20:44:52;0.30;61.90
1958;DHT22;979;51.076;13.748;2022-11-20T20:47:56;0.40;62.20
1958;DHT22;979;51.076;13.748;2022-11-20T20:50:56;0.50;62.20
1958;DHT22;979;51.076;13.748;2022-11-20T21:37:29;1.00;62.70
1958;DHT22;979;51.076;13.748;2022-11-20T21:40:37;1.20;62.90
1958;DHT22;979;51.076;13.748;2022-11-20T21:47:09;1.30;62.90
1958;DHT22;979;51.076;13.748;2022-11-20T21:50:48;1.30;63.20
1958;DHT22;979;51.076;13.748;2022-11-20T21:57:37;1.40;62.90
1958;DHT22;979;51.076;13.748;2022-11-20T22:00:48;1.50;63.10
1958;DHT22;979;51.076;13.748;2022-11-20T22:03:35;1.50;63.00
1958;DHT22;979;51.076;13.748;2022-11-20T22:10:57;1.60;63.00
1958;DHT22;979;51.076;13.748;2022-11-20T22:18:17;1.80;63.10
1958;DHT22;979;51.076;13.748;2022-11-20T22:21:27;1.80;63.00
1958;DHT22;979;51.076;13.748;2022-11-20T22:24:57;1.90;63.20
1958;DHT22;979;51.076;13.748;2022-11-20T22:32:51;1.90;62.90
1958;DHT22;979;51.076;13.748;2022-11-20T22:43:35;2.20;63.00
1958;DHT22;979;51.076;13.748;2022-11-20T22:49:57;2.30;63.20
1958;DHT22;979;51.076;13.748;2022-11-20T22:56:04;2.40;63.20
1958;DHT22;979;51.076;13.748;2022-11-20T22:59:06;2.40;63.40
1958;DHT22;979;51.076;13.748;2022-11-20T23:02:00;2.30;63.20
1958;DHT22;979;51.076;13.748;2022-11-20T23:09:21;2.30;62.90
1958;DHT22;979;51.076;13.748;2022-11-20T23:12:45;2.50;63.40
1958;DHT22;979;51.076;13.748;2022-11-20T23:16:18;2.50;63.30
1958;DHT22;979;51.076;13.748;2022-11-20T23:19:41;2.40;63.20
1958;DHT22;979;51.076;13.748;2022-11-20T23:23:00;2.40;63.20
1958;DHT22;979;51.076;13.748;2022-11-20T23:26:18;2.50;64.00
1958;DHT22;979;51.076;13.748;2022-11-20T23:29:32;2.30;63.20
1958;DHT22;979;51.076;13.748;2022-11-20T23:32:53;2.50;63.80
1958;DHT22;979;51.076;13.748;2022-11-20T23:36:00;2.40;63.80
1958;DHT22;979;51.076;13.748;2022-11-20T23:39:45;2.40;63.60
1958;DHT22;979;51.076;13.748;2022-11-20T23:49:04;2.40;63.90
1958;DHT22;979;51.076;13.748;2022-11-20T23:55:45;2.50;64.10
1958;DHT22;979;51.076;13.748;2022-11-20T23:58:24;2.50;64.40
